createdAt,value
2018-11-03T00:01:00.232Z,2.17
2018-11-03T00:04:03.325Z,2.00
2018-11-03T00:07:06.877Z,2.00
2018-11-03T00:10:09.860Z,2.07
2018-11-03T00:13:12.691Z,2.40
2018-11-03T00:16:15.556Z,2.20
2018-11-03T00:19:18.293Z,2.37
2018-11-03T00:22:21.103Z,2.43
2018-11-03T00:25:23.928Z,1.83
2018-11-03T00:28:27.669Z,2.20
2018-11-03T00:31:30.485Z,1.80
2018-11-03T00:34:33.227Z,2.53
2018-11-03T00:37:36.646Z,1.70
2018-11-03T00:40:39.432Z,2.37
2018-11-03T00:43:43.333Z,2.50
2018-11-03T00:46:46.164Z,2.50
2018-11-03T00:49:48.978Z,2.20
2018-11-03T00:52:51.929Z,1.57
2018-11-03T00:55:54.733Z,2.07
2018-11-03T00:58:57.919Z,1.93
2018-11-03T01:02:00.739Z,1.80
2018-11-03T01:05:03.771Z,1.43
2018-11-03T01:08:06.624Z,1.40
2018-11-03T01:11:09.523Z,1.93
2018-11-03T01:14:12.330Z,1.93
2018-11-03T01:17:15.135Z,3.13
2018-11-03T01:20:18.185Z,2.00
2018-11-03T01:23:21.051Z,1.77
2018-11-03T01:26:24.858Z,1.60
2018-11-03T01:29:27.716Z,1.87
2018-11-03T01:32:30.486Z,1.60
2018-11-03T01:35:33.297Z,1.57
2018-11-03T01:38:36.182Z,1.47
2018-11-03T01:41:39.113Z,2.00
2018-11-03T01:44:42.049Z,2.37
2018-11-03T01:47:45.805Z,1.87
2018-11-03T01:50:48.537Z,2.17
2018-11-03T01:53:51.282Z,1.80
2018-11-03T01:56:54.658Z,1.90
2018-11-03T01:59:57.573Z,1.90
2018-11-03T02:03:00.434Z,1.73
2018-11-03T02:06:04.259Z,1.67
2018-11-03T02:09:08.000Z,1.30
2018-11-03T02:12:10.929Z,2.27
2018-11-03T02:15:13.707Z,1.77
2018-11-03T02:18:16.443Z,2.03
2018-11-03T02:21:19.855Z,1.60
2018-11-03T02:24:23.621Z,1.87
2018-11-03T02:27:26.473Z,1.50
2018-11-03T02:30:29.193Z,1.70
2018-11-03T02:33:32.199Z,2.57
2018-11-03T02:36:35.028Z,2.00
2018-11-03T02:39:37.810Z,1.80
2018-11-03T02:42:41.185Z,1.30
2018-11-03T02:45:44.058Z,2.10
2018-11-03T02:48:46.949Z,1.67
2018-11-03T02:51:50.491Z,1.47
2018-11-03T02:54:53.398Z,1.37
2018-11-03T02:57:56.317Z,1.53
2018-11-03T03:00:58.975Z,1.47
2018-11-03T03:04:01.925Z,1.63
2018-11-03T03:07:04.830Z,2.10
2018-11-03T03:10:13.691Z,1.17
2018-11-03T03:16:37.998Z,2.03
2018-11-03T03:19:42.369Z,1.87
2018-11-03T03:23:01.891Z,1.17
2018-11-03T03:26:05.586Z,1.30
2018-11-03T03:29:14.958Z,1.33
2018-11-03T03:35:51.265Z,1.67
2018-11-03T03:38:54.313Z,1.30
2018-11-03T03:41:57.273Z,1.37
2018-11-03T03:45:01.211Z,1.43
2018-11-03T03:48:07.648Z,1.70
2018-11-03T03:51:11.218Z,1.43
2018-11-03T03:54:14.731Z,1.70
2018-11-03T03:57:17.435Z,1.43
2018-11-03T04:00:24.801Z,1.20
2018-11-03T04:03:27.489Z,1.33
2018-11-03T04:06:30.211Z,1.37
2018-11-03T04:09:33.213Z,1.60
2018-11-03T04:12:36.012Z,1.13
2018-11-03T04:15:39.963Z,1.63
2018-11-03T04:18:49.756Z,0.90
2018-11-03T04:21:53.240Z,1.07
2018-11-03T04:25:00.036Z,1.83
2018-11-03T04:28:03.382Z,2.20
2018-11-03T04:31:12.596Z,1.00
2018-11-03T04:34:15.340Z,1.57
2018-11-03T04:37:20.976Z,1.70
2018-11-03T04:40:23.783Z,1.60
2018-11-03T04:43:27.355Z,1.43
2018-11-03T04:46:29.999Z,1.10
2018-11-03T04:49:32.841Z,1.97
2018-11-03T04:52:35.753Z,2.30
2018-11-03T04:55:39.130Z,0.87
2018-11-03T04:58:41.848Z,1.40
2018-11-03T05:01:45.463Z,1.20
2018-11-03T05:04:48.676Z,1.63
2018-11-03T05:07:55.559Z,1.87
2018-11-03T05:11:00.019Z,1.83
2018-11-03T05:14:03.852Z,1.30
2018-11-03T05:17:09.549Z,1.40
2018-11-03T05:20:12.277Z,1.30
2018-11-03T05:23:15.177Z,1.40
2018-11-03T05:26:18.062Z,1.30
2018-11-03T05:29:21.901Z,1.47
2018-11-03T05:32:25.838Z,1.17
2018-11-03T05:35:28.574Z,2.20
2018-11-03T05:38:32.218Z,1.50
2018-11-03T05:41:35.267Z,1.20
2018-11-03T05:44:39.968Z,1.47
2018-11-03T05:48:13.029Z,1.13
2018-11-03T05:51:16.192Z,0.97
2018-11-03T05:54:19.685Z,1.27
2018-11-03T05:57:23.529Z,1.00
2018-11-03T06:00:27.633Z,1.07
2018-11-03T06:03:30.405Z,1.07
2018-11-03T06:06:33.163Z,1.23
2018-11-03T06:09:35.878Z,1.07
2018-11-03T06:12:39.182Z,1.47
2018-11-03T06:15:57.370Z,1.50
2018-11-03T06:19:13.249Z,1.37
2018-11-03T06:22:17.112Z,1.37
2018-11-03T06:25:21.180Z,1.63
2018-11-03T06:28:25.248Z,1.40
2018-11-03T06:31:30.448Z,1.47
2018-11-03T06:34:34.550Z,1.03
2018-11-03T06:42:04.039Z,0.90
2018-11-03T06:45:11.142Z,1.77
2018-11-03T06:48:14.714Z,1.50
2018-11-03T06:51:30.936Z,1.50
2018-11-03T06:54:35.281Z,1.40
2018-11-03T06:57:39.291Z,2.37
2018-11-03T07:00:44.301Z,1.00
2018-11-03T07:03:53.443Z,1.33
2018-11-03T07:06:56.445Z,1.27
2018-11-03T07:10:15.359Z,1.40
2018-11-03T07:13:21.623Z,1.10
2018-11-03T07:16:24.572Z,1.07
2018-11-03T07:19:27.401Z,1.77
2018-11-03T07:22:30.368Z,1.87
2018-11-03T07:25:35.654Z,1.23
2018-11-03T07:28:56.549Z,0.97
2018-11-03T07:38:56.685Z,1.90
2018-11-03T07:42:07.417Z,1.37
2018-11-03T07:45:16.832Z,1.50
2018-11-03T07:48:21.079Z,1.57
2018-11-03T07:51:36.328Z,2.00
2018-11-03T07:54:50.172Z,2.40
2018-11-03T07:58:33.771Z,2.00
2018-11-03T08:08:44.337Z,1.63
2018-11-03T08:11:50.671Z,2.43
2018-11-03T08:14:56.884Z,2.50
2018-11-03T08:18:05.969Z,1.63
2018-11-03T08:23:12.867Z,2.43
2018-11-03T08:26:16.822Z,1.87
2018-11-03T08:29:21.505Z,2.03
2018-11-03T08:32:27.004Z,2.57
2018-11-03T08:35:36.217Z,2.10
2018-11-03T08:38:45.011Z,2.30
2018-11-03T08:41:49.146Z,1.53
2018-11-03T08:44:59.735Z,2.10
2018-11-03T08:48:10.802Z,1.97
2018-11-03T09:16:02.482Z,1.43
2018-11-03T09:19:06.127Z,1.60
2018-11-03T09:22:13.749Z,1.63
2018-11-03T09:28:31.741Z,1.60
2018-11-03T09:40:23.073Z,1.67
2018-11-03T09:46:46.976Z,1.57
2018-11-03T09:50:10.970Z,1.17
2018-11-03T09:53:17.462Z,2.13
2018-11-03T10:06:17.166Z,1.20
2018-11-03T10:09:33.690Z,1.57
2018-11-03T10:12:36.520Z,1.73
2018-11-03T10:18:57.984Z,1.77
2018-11-03T10:22:02.856Z,1.70
2018-11-03T10:25:14.312Z,1.70
2018-11-03T10:28:17.263Z,2.17
2018-11-03T10:31:20.427Z,1.70
2018-11-03T10:34:23.642Z,2.03
2018-11-03T10:37:28.882Z,1.70
2018-11-03T10:40:32.317Z,1.60
2018-11-03T10:43:35.195Z,3.13
2018-11-03T10:46:39.248Z,2.57
2018-11-03T10:49:44.953Z,2.07
2018-11-03T10:52:52.308Z,4.07
2018-11-03T10:55:55.517Z,2.43
2018-11-03T10:58:58.366Z,2.07
2018-11-03T11:02:07.043Z,1.80
2018-11-03T11:05:16.864Z,2.33
2018-11-03T11:08:25.261Z,1.50
2018-11-03T11:11:44.313Z,1.67
2018-11-03T11:14:49.709Z,1.73
2018-11-03T11:17:53.217Z,1.77
2018-11-03T11:20:59.384Z,2.37
2018-11-03T11:24:05.137Z,1.40
2018-11-03T11:27:13.623Z,1.50
2018-11-03T11:30:20.827Z,1.27
2018-11-03T11:33:25.018Z,1.07
2018-11-03T11:39:50.735Z,1.40
2018-11-03T11:43:07.753Z,2.30
2018-11-03T11:46:11.726Z,1.50
2018-11-03T11:49:14.885Z,1.70
2018-11-03T11:52:23.632Z,2.23
2018-11-03T11:55:33.676Z,1.33
2018-11-03T11:58:45.267Z,2.37
2018-11-03T12:01:53.377Z,1.83
2018-11-03T12:04:56.641Z,1.33
2018-11-03T12:07:59.542Z,2.53
2018-11-03T12:11:04.388Z,2.10
2018-11-03T12:14:11.778Z,1.60
2018-11-03T12:17:14.876Z,1.73
2018-11-03T12:20:17.814Z,2.67
2018-11-03T12:23:22.399Z,2.70
2018-11-03T12:26:25.274Z,1.80
2018-11-03T12:32:51.018Z,1.87
2018-11-03T12:35:54.196Z,1.90
2018-11-03T12:38:57.213Z,1.80
2018-11-03T12:42:00.079Z,2.23
2018-11-03T12:45:02.952Z,1.50
2018-11-03T12:48:06.475Z,1.50
2018-11-03T12:51:10.321Z,3.73
2018-11-03T12:54:13.363Z,1.30
2018-11-03T12:57:16.366Z,1.90
2018-11-03T13:00:19.314Z,1.90
2018-11-03T13:03:26.448Z,2.30
2018-11-03T13:06:44.355Z,1.60
2018-11-03T13:09:54.237Z,2.00
2018-11-03T13:16:34.449Z,2.00
2018-11-03T13:19:41.889Z,2.10
2018-11-03T13:22:45.346Z,1.50
2018-11-03T13:26:04.226Z,2.57
2018-11-03T13:32:20.644Z,2.23
2018-11-03T13:35:24.751Z,2.57
2018-11-03T13:38:28.438Z,1.90
2018-11-03T13:41:32.429Z,2.27
2018-11-03T13:44:36.953Z,1.93
2018-11-03T13:47:40.381Z,2.27
2018-11-03T13:57:29.047Z,2.40
2018-11-03T14:00:34.195Z,2.77
2018-11-03T14:03:38.505Z,2.77
2018-11-03T14:06:44.600Z,2.37
2018-11-03T14:09:48.096Z,2.53
2018-11-03T14:12:56.797Z,2.30
2018-11-03T14:16:09.715Z,2.10
2018-11-03T14:19:28.336Z,2.00
2018-11-03T14:22:37.413Z,2.23
2018-11-03T14:25:44.838Z,1.73
2018-11-03T14:28:52.086Z,1.97
2018-11-03T14:31:56.045Z,1.43
2018-11-03T14:35:01.270Z,1.97
2018-11-03T14:38:18.172Z,1.90
2018-11-03T14:41:21.929Z,2.27
2018-11-03T14:44:31.351Z,1.60
2018-11-03T14:47:40.294Z,1.90
2018-11-03T14:50:44.783Z,2.10
2018-11-03T14:53:47.889Z,2.67
2018-11-03T14:56:51.415Z,2.40
2018-11-03T14:59:57.333Z,2.70
2018-11-03T15:03:11.615Z,2.67
2018-11-03T15:06:14.508Z,2.23
2018-11-03T15:09:17.478Z,2.20
2018-11-03T15:12:20.381Z,2.80
2018-11-03T15:15:23.307Z,1.97
2018-11-03T15:18:31.689Z,1.47
2018-11-03T15:21:46.691Z,1.70
2018-11-03T15:24:51.049Z,1.90
2018-11-03T15:27:54.359Z,2.53
2018-11-03T15:30:58.158Z,2.77
2018-11-03T15:34:00.954Z,2.47
2018-11-03T15:37:04.276Z,2.37
2018-11-03T15:40:10.179Z,2.37
2018-11-03T15:43:13.092Z,2.27
2018-11-03T15:46:15.926Z,2.43
2018-11-03T15:49:18.664Z,2.30
2018-11-03T15:52:22.567Z,1.93
2018-11-03T15:55:25.377Z,2.27
2018-11-03T15:58:28.150Z,2.40
2018-11-03T16:01:31.095Z,2.50
2018-11-03T16:04:33.995Z,2.53
2018-11-03T16:07:38.069Z,2.40
2018-11-03T16:10:41.164Z,1.80
2018-11-03T16:13:53.266Z,2.00
2018-11-03T16:16:57.305Z,2.27
2018-11-03T16:20:00.526Z,2.47
2018-11-03T16:23:08.882Z,1.87
2018-11-03T16:29:44.481Z,2.83
2018-11-03T16:32:48.771Z,2.27
2018-11-03T16:35:52.683Z,1.90
2018-11-03T16:39:00.016Z,2.27
2018-11-03T16:42:03.157Z,1.97
2018-11-03T16:45:10.588Z,1.87
2018-11-03T16:48:14.540Z,3.47
2018-11-03T16:51:20.614Z,1.97
2018-11-03T16:54:26.417Z,2.60
2018-11-03T16:57:30.635Z,1.70
2018-11-03T17:00:33.793Z,2.73
2018-11-03T17:03:36.733Z,1.77
2018-11-03T17:06:40.289Z,1.50
2018-11-03T17:09:43.544Z,1.77
2018-11-03T17:12:47.088Z,2.10
2018-11-03T17:15:52.173Z,2.00
2018-11-03T17:18:55.203Z,2.23
2018-11-03T17:21:58.947Z,1.87
2018-11-03T17:25:01.891Z,1.93
2018-11-03T17:28:05.931Z,1.73
2018-11-03T17:31:08.787Z,2.10
2018-11-03T17:34:19.671Z,1.63
2018-11-03T17:37:22.668Z,2.07
2018-11-03T17:40:27.163Z,1.90
2018-11-03T17:43:30.017Z,1.80
2018-11-03T17:46:45.917Z,1.50
2018-11-03T17:50:01.860Z,1.47
2018-11-03T17:53:07.653Z,2.20
2018-11-03T17:56:16.912Z,1.90
2018-11-03T18:06:47.750Z,2.33
2018-11-03T18:10:15.573Z,1.90
2018-11-03T18:13:24.916Z,2.70
2018-11-03T18:16:31.535Z,2.53
2018-11-03T18:19:42.440Z,1.77
2018-11-03T18:22:49.053Z,1.33
2018-11-03T18:26:05.372Z,1.53
2018-11-03T18:29:15.988Z,1.37
2018-11-03T18:32:38.098Z,2.20
2018-11-03T18:35:56.873Z,1.47
2018-11-03T18:39:09.055Z,1.97
2018-11-03T18:42:22.043Z,2.20
2018-11-03T18:45:39.453Z,1.67
2018-11-03T18:48:42.409Z,1.50
2018-11-03T18:51:45.415Z,2.23
2018-11-03T18:54:48.629Z,2.07
2018-11-03T18:57:51.645Z,1.70
2018-11-03T19:00:54.978Z,2.63
2018-11-03T19:03:58.500Z,2.50
2018-11-03T19:07:01.726Z,2.33
2018-11-03T19:10:05.966Z,1.90
2018-11-03T19:13:09.177Z,2.50
2018-11-03T19:16:13.185Z,1.83
2018-11-03T19:19:20.139Z,2.73
2018-11-03T19:22:29.463Z,1.97
2018-11-03T19:25:39.543Z,1.80
2018-11-03T19:28:43.254Z,1.83
2018-11-03T19:31:46.223Z,2.87
2018-11-03T19:34:49.855Z,1.70
2018-11-03T19:37:53.593Z,2.27
2018-11-03T19:40:57.182Z,1.80
2018-11-03T19:44:00.387Z,2.07
2018-11-03T19:47:03.709Z,1.60
2018-11-03T19:50:07.645Z,1.70
2018-11-03T19:53:11.495Z,1.90
2018-11-03T19:56:14.309Z,2.40
2018-11-03T19:59:17.413Z,2.00
2018-11-03T20:02:20.794Z,2.00
2018-11-03T20:05:23.547Z,1.63
2018-11-03T20:08:26.581Z,2.30
2018-11-03T20:11:29.363Z,1.90
2018-11-03T20:14:32.954Z,2.20
2018-11-03T20:17:35.826Z,2.70
2018-11-03T20:20:39.725Z,2.20
2018-11-03T20:23:42.911Z,1.73
2018-11-03T20:26:54.864Z,2.47
2018-11-03T20:29:59.248Z,2.97
2018-11-03T20:33:03.039Z,1.90
2018-11-03T20:36:06.963Z,1.63
2018-11-03T20:39:10.291Z,3.03
2018-11-03T20:42:13.097Z,2.70
2018-11-03T20:45:16.802Z,2.33
2018-11-03T20:48:21.500Z,1.93
2018-11-03T20:51:24.292Z,2.00
2018-11-03T20:54:27.005Z,2.97
2018-11-03T20:57:31.103Z,3.03
2018-11-03T21:00:33.917Z,3.07
2018-11-03T21:03:36.697Z,3.37
2018-11-03T21:06:39.392Z,2.83
2018-11-03T21:09:42.987Z,2.90
2018-11-03T21:12:45.777Z,3.10
2018-11-03T21:15:48.534Z,3.17
2018-11-03T21:18:51.410Z,3.10
2018-11-03T21:21:54.162Z,2.87
2018-11-03T21:24:57.025Z,3.00
2018-11-03T21:27:59.871Z,3.30
2018-11-03T21:31:02.678Z,3.13
2018-11-03T21:34:05.530Z,3.40
2018-11-03T21:37:08.418Z,3.47
2018-11-03T21:40:11.144Z,3.53
2018-11-03T21:43:13.902Z,3.93
2018-11-03T21:46:16.618Z,3.00
2018-11-03T21:49:19.500Z,2.90
2018-11-03T21:52:22.184Z,3.57
2018-11-03T21:55:24.923Z,3.70
2018-11-03T21:58:27.823Z,3.57
2018-11-03T22:01:30.537Z,3.60
2018-11-03T22:04:33.294Z,3.40
2018-11-03T22:07:38.749Z,4.57
2018-11-03T22:10:41.497Z,4.23
2018-11-03T22:13:44.868Z,3.83
2018-11-03T22:16:47.747Z,3.70
2018-11-03T22:19:50.496Z,4.07
2018-11-03T22:22:53.187Z,3.87
2018-11-03T22:25:56.995Z,4.00
2018-11-03T22:29:00.298Z,4.57
2018-11-03T22:32:02.993Z,3.50
2018-11-03T22:35:06.068Z,4.07
2018-11-03T22:38:08.697Z,3.57
2018-11-03T22:41:11.354Z,3.30
2018-11-03T22:44:14.763Z,3.93
2018-11-03T22:47:17.348Z,4.10
2018-11-03T22:50:20.583Z,3.33
2018-11-03T22:53:23.281Z,3.20
2018-11-03T22:56:25.883Z,3.00
2018-11-03T22:59:29.984Z,3.30
2018-11-03T23:02:32.527Z,3.37
2018-11-03T23:05:35.234Z,3.80
2018-11-03T23:08:38.729Z,3.57
2018-11-03T23:11:41.381Z,3.70
2018-11-03T23:14:44.049Z,3.50
2018-11-03T23:17:46.714Z,4.60
2018-11-03T23:20:49.419Z,4.50
2018-11-03T23:23:53.746Z,4.20
2018-11-03T23:26:57.057Z,3.27
2018-11-03T23:29:59.837Z,2.97
2018-11-03T23:33:02.517Z,3.80
2018-11-03T23:36:05.180Z,4.33
2018-11-03T23:39:09.197Z,3.27
2018-11-03T23:42:11.880Z,4.50
2018-11-03T23:45:14.572Z,3.97
2018-11-03T23:48:17.978Z,4.70
2018-11-03T23:51:20.997Z,6.03
2018-11-03T23:54:23.735Z,5.30
2018-11-03T23:57:26.443Z,5.33
